Terminal Aerodrome Forecast
Issued by NWS

Home | Current Version | Previous Version | Text Only | Print | Product List | Glossary On
Versions: 1 2 3 4 5 6 7 8 9 10 11 12 13 14 15 16 17 18 19 20 21 22 23 24 25
000
FTUS41 KBUF 201507 AAE
TAFJHW
TAF AMD
KJHW 201507Z 2015/2112 21017G30KT P6SM SCT035 BKN100
     FM202100 21015G22KT P6SM SCT035
     FM210000 20015G22KT P6SM SCT030
     FM210700 21014G21KT P6SM BKN020 WS020/22045KT
     FM211100 22013G20KT P6SM BKN012 WS020/22045KT
      AMD NOT SKED=

USA.gov is the U.S. government's official web portal to all federal, state and local government web resources and services.